Time;durP1;ratioP1;P1;durP2;ratioP2;P2;SDS_P1;SDS_P2;PMS_P1;PMS_P2;Temp;Humidity;BMP_temperature;BMP_pressure;BME280_temperature;BME280_humidity;BME280_pressure;Samples;Min_cycle;Max_cycle;Signal;HPM_P1;HPM_P2
2022/11/03 00:01:46;;;;;;;18.80;3.35;;;13.00;99.90;;;;;;5073129;28;20602;-71
2022/11/03 00:04:14;;;;;;;13.00;2.83;;;13.00;99.90;;;;;;5091158;28;20043;-71
2022/11/03 00:06:42;;;;;;;14.25;2.72;;;13.00;99.90;;;;;;5089938;28;20562;-70
2022/11/03 00:09:09;;;;;;;15.80;2.70;;;13.00;99.90;;;;;;5091324;28;20430;-71
2022/11/03 00:11:37;;;;;;;11.85;2.15;;;12.90;99.90;;;;;;5089774;28;20048;-71
2022/11/03 00:14:04;;;;;;;11.82;2.33;;;12.90;99.90;;;;;;5089591;28;20055;-71
2022/11/03 00:16:31;;;;;;;14.90;2.30;;;12.80;99.90;;;;;;5073047;28;20356;-71
2022/11/03 00:18:58;;;;;;;12.23;2.33;;;12.80;99.90;;;;;;5089912;28;20052;-71
2022/11/03 00:21:24;;;;;;;11.70;2.00;;;12.70;99.90;;;;;;5090929;28;20052;-71
2022/11/03 00:23:51;;;;;;;13.85;2.20;;;12.70;99.90;;;;;;5091622;28;20166;-70
2022/11/03 00:26:28;;;;;;;17.55;3.03;;;12.70;99.90;;;;;;5091556;28;20097;-70
2022/11/03 00:28:56;;;;;;;13.15;2.75;;;12.60;99.90;;;;;;5093089;28;20056;-70
2022/11/03 00:31:24;;;;;;;11.75;2.15;;;12.60;99.90;;;;;;5092960;28;20055;-71
2022/11/03 00:33:51;;;;;;;15.45;2.30;;;12.50;99.90;;;;;;5092641;28;20052;-70
2022/11/03 00:36:20;;;;;;;9.38;2.38;;;12.50;99.90;;;;;;5091753;28;20048;-71
2022/11/03 00:38:47;;;;;;;9.60;2.70;;;12.40;99.90;;;;;;5093271;28;20048;-71
2022/11/03 00:41:14;;;;;;;7.55;2.63;;;12.40;99.90;;;;;;5094105;28;20050;-70
2022/11/03 00:43:41;;;;;;;10.38;2.78;;;12.30;99.90;;;;;;5090357;28;20648;-71
2022/11/03 00:46:08;;;;;;;11.32;3.20;;;12.30;99.90;;;;;;5089939;28;20494;-71
2022/11/03 00:48:35;;;;;;;11.63;2.60;;;12.30;99.90;;;;;;5072390;28;20526;-72
2022/11/03 00:51:12;;;;;;;3.78;1.45;;;12.20;99.90;;;;;;5089049;28;20131;-71
2022/11/03 00:53:43;;;;;;;7.43;1.55;;;12.20;99.90;;;;;;5089019;28;20048;-71
2022/11/03 00:56:14;;;;;;;13.32;2.08;;;12.20;99.90;;;;;;4736589;27;10000102;-71
2022/11/03 00:58:42;;;;;;;8.27;1.73;;;12.10;99.90;;;;;;5089543;28;20055;-71
2022/11/03 01:01:16;;;;;;;10.48;1.33;;;12.10;99.90;;;;;;5090674;28;20117;-73
2022/11/03 01:06:49;;;;;;;5.53;1.85;;;12.00;99.90;;;;;;5089262;28;20048;-71
2022/11/03 01:09:27;;;;;;;6.63;0.90;;;12.00;99.90;;;;;;5091435;28;20410;-70
2022/11/03 01:11:57;;;;;;;4.45;1.13;;;12.00;99.90;;;;;;5090438;28;20040;-70
2022/11/03 01:14:25;;;;;;;5.75;1.00;;;12.00;99.90;;;;;;5091308;28;20044;-70
2022/11/03 01:16:51;;;;;;;2.03;0.85;;;12.00;99.90;;;;;;5091563;28;20046;-70
2022/11/03 01:19:18;;;;;;;3.17;1.00;;;12.00;99.90;;;;;;5090393;28;20739;-70
2022/11/03 01:21:45;;;;;;;7.10;0.63;;;12.00;99.90;;;;;;5091041;28;20048;-70
2022/11/03 01:24:11;;;;;;;1.42;0.80;;;12.00;99.90;;;;;;5088712;28;20460;-70
2022/11/03 01:26:38;;;;;;;1.90;0.77;;;12.00;99.90;;;;;;5088649;28;20052;-70
2022/11/03 01:29:05;;;;;;;5.65;0.63;;;12.00;99.90;;;;;;5089953;28;20055;-70
2022/11/03 01:31:32;;;;;;;6.88;0.60;;;12.00;99.90;;;;;;5089911;28;20048;-71
2022/11/03 01:33:58;;;;;;;4.25;0.73;;;12.00;99.90;;;;;;5088644;28;20130;-70
2022/11/03 01:36:25;;;;;;;2.58;0.70;;;12.00;99.90;;;;;;5089770;28;20055;-71
2022/11/03 01:38:56;;;;;;;5.30;0.70;;;12.00;99.90;;;;;;5089645;28;20585;-70
2022/11/03 01:41:25;;;;;;;3.83;1.23;;;12.00;99.90;;;;;;5089159;28;20131;-71
2022/11/03 01:44:07;;;;;;;4.45;1.00;;;12.00;99.90;;;;;;5089953;28;20138;-70
2022/11/03 01:46:36;;;;;;;2.38;0.40;;;12.00;99.90;;;;;;5106993;28;20064;-70
2022/11/03 01:49:06;;;;;;;3.67;0.77;;;12.00;99.90;;;;;;5092376;28;20047;-70
2022/11/03 01:51:33;;;;;;;3.58;0.68;;;12.00;99.90;;;;;;5091578;28;20521;-70
2022/11/03 01:54:03;;;;;;;2.70;0.63;;;12.00;99.90;;;;;;5057351;28;20048;-71
2022/11/03 01:56:31;;;;;;;5.25;0.90;;;12.00;99.90;;;;;;5075851;28;20048;-70
2022/11/03 01:58:57;;;;;;;0.98;0.55;;;12.00;99.90;;;;;;5090860;28;20055;-71
2022/11/03 02:01:24;;;;;;;5.47;0.68;;;12.00;99.90;;;;;;5092166;28;20062;-70
2022/11/03 02:04:00;;;;;;;3.38;0.60;;;12.00;99.90;;;;;;5091213;28;20056;-70
2022/11/03 02:06:27;;;;;;;2.58;0.60;;;12.00;99.90;;;;;;5090503;28;20044;-70
2022/11/03 02:08:59;;;;;;;2.17;0.60;;;12.00;99.90;;;;;;5090245;28;20043;-71
2022/11/03 02:14:13;;;;;;;2.58;0.63;;;12.00;99.90;;;;;;5089726;28;20040;-71
2022/11/03 02:16:51;;;;;;;2.75;0.50;;;12.10;99.90;;;;;;5090082;28;20490;-71
2022/11/03 02:19:44;;;;;;;4.53;0.82;;;12.10;99.90;;;;;;5089159;28;20490;-70
2022/11/03 02:22:30;;;;;;;4.53;1.13;;;12.10;99.90;;;;;;5094043;28;20415;-70
2022/11/03 02:25:30;;;;;;;3.13;0.60;;;12.20;99.90;;;;;;5095099;28;20044;-70
2022/11/03 02:27:57;;;;;;;4.95;0.77;;;12.10;99.90;;;;;;5088834;28;20040;-70
2022/11/03 02:30:25;;;;;;;2.38;0.55;;;12.00;99.90;;;;;;5060692;28;20056;-71
2022/11/03 02:32:56;;;;;;;3.17;0.63;;;12.00;99.90;;;;;;5077106;28;20710;-70
2022/11/03 02:35:53;;;;;;;3.00;0.40;;;12.10;99.90;;;;;;5094305;28;20135;-71
2022/11/03 02:38:20;;;;;;;10.93;1.00;;;12.10;99.90;;;;;;5075125;28;20396;-70
2022/11/03 02:40:49;;;;;;;2.80;0.73;;;12.10;99.90;;;;;;5093164;28;20133;-70
2022/11/03 02:43:16;;;;;;;2.25;0.82;;;12.10;99.90;;;;;;5078784;28;20407;-71
2022/11/03 02:45:43;;;;;;;3.47;0.50;;;12.10;99.90;;;;;;5077828;28;20563;-71
2022/11/03 02:48:09;;;;;;;4.57;0.57;;;12.10;99.90;;;;;;5075903;28;20045;-71
2022/11/03 02:50:36;;;;;;;9.30;0.98;;;12.10;99.90;;;;;;5089156;28;20050;-71
2022/11/03 02:53:03;;;;;;;5.63;1.02;;;12.10;99.90;;;;;;5093410;28;20533;-70
2022/11/03 02:55:38;;;;;;;3.72;0.95;;;12.20;99.90;;;;;;5094469;28;20495;-70
2022/11/03 02:58:23;;;;;;;4.22;1.20;;;12.20;99.90;;;;;;5078161;28;20074;-70
2022/11/03 03:01:17;;;;;;;12.18;2.70;;;12.30;99.90;;;;;;5094941;28;20046;-70
2022/11/03 03:03:54;;;;;;;9.00;1.35;;;12.30;99.90;;;;;;5090614;28;20040;-70
2022/11/03 03:06:36;;;;;;;9.07;1.25;;;12.30;99.90;;;;;;5091444;28;20040;-70
2022/11/03 03:09:05;;;;;;;13.73;2.42;;;12.30;99.90;;;;;;5071943;28;20058;-70
2022/11/03 03:11:36;;;;;;;11.35;2.80;;;12.20;99.90;;;;;;5087293;28;20055;-69
2022/11/03 03:14:15;;;;;;;6.90;1.48;;;12.30;99.90;;;;;;5087558;28;20043;-69
2022/11/03 03:17:05;;;;;;;5.50;1.35;;;12.30;99.90;;;;;;5091423;28;20051;-70
2022/11/03 03:19:38;;;;;;;15.23;1.92;;;12.40;99.90;;;;;;5068512;28;20054;-70
2022/11/03 03:22:21;;;;;;;16.95;1.75;;;12.40;99.90;;;;;;5074788;28;20051;-70
2022/11/03 03:24:55;;;;;;;11.57;1.63;;;12.40;99.90;;;;;;5091140;28;20051;-70
2022/11/03 03:27:22;;;;;;;;;;;12.40;99.90;;;;;;5075472;28;20054;-69
2022/11/03 03:29:51;;;;;;;11.30;2.20;;;12.40;99.90;;;;;;5091235;28;19920;-70
2022/11/03 03:32:19;;;;;;;20.10;2.22;;;12.40;99.90;;;;;;5075143;28;20135;-70
2022/11/03 03:34:46;;;;;;;12.88;2.38;;;12.40;99.90;;;;;;5094575;28;20135;-70
2022/11/03 03:37:13;;;;;;;14.00;3.08;;;12.40;99.90;;;;;;5082297;28;20068;-70
2022/11/03 03:39:40;;;;;;;19.15;3.30;;;12.40;99.90;;;;;;5082431;28;20151;-69
2022/11/03 03:42:08;;;;;;;11.25;2.05;;;12.50;99.90;;;;;;5082079;28;20060;-70
2022/11/03 03:44:35;;;;;;;9.32;2.20;;;12.40;99.90;;;;;;5080251;28;20047;-70
2022/11/03 03:47:14;;;;;;;9.30;2.22;;;12.40;99.90;;;;;;5078930;28;20045;-70
2022/11/03 03:49:40;;;;;;;10.35;2.38;;;12.40;99.90;;;;;;5092796;28;20055;-70
2022/11/03 03:52:08;;;;;;;15.15;2.25;;;12.40;99.90;;;;;;5097401;28;20062;-70
2022/11/03 03:54:35;;;;;;;12.07;2.22;;;12.50;99.90;;;;;;5082063;28;20131;-70
2022/11/03 03:57:03;;;;;;;11.27;2.03;;;12.50;99.90;;;;;;5080028;28;20055;-70
2022/11/03 03:59:30;;;;;;;11.48;2.05;;;12.40;99.90;;;;;;5097557;28;20052;-70
2022/11/03 04:01:57;;;;;;;6.68;2.08;;;12.40;99.90;;;;;;5094504;28;20062;-70
2022/11/03 04:04:24;;;;;;;7.43;1.98;;;12.50;99.90;;;;;;5069780;28;20044;-71
2022/11/03 04:07:45;;;;;;;7.32;1.73;;;12.50;99.90;;;;;;5083832;28;20070;-71
2022/11/03 04:09:38;;;;;;;15.10;2.42;;;12.50;99.90;;;;;;5081126;28;20047;-72
2022/11/03 04:23:10;;;;;;;9.43;3.92;;;12.60;99.90;;;;;;5089664;28;20047;-70
2022/11/03 04:25:36;;;;;;;6.80;1.58;;;12.60;99.90;;;;;;5089408;28;20483;-70
2022/11/03 04:28:12;;;;;;;9.95;1.77;;;12.60;99.90;;;;;;5090561;28;20054;-70
2022/11/03 04:30:39;;;;;;;10.85;2.20;;;12.70;99.90;;;;;;5090666;28;20054;-70
2022/11/03 04:33:17;;;;;;;5.13;1.40;;;12.70;99.90;;;;;;5089565;28;20044;-70
2022/11/03 04:35:43;;;;;;;7.55;1.67;;;12.70;99.90;;;;;;5072228;28;20521;-70
2022/11/03 04:38:13;;;;;;;11.05;2.67;;;12.70;99.90;;;;;;5089146;28;20410;-70
2022/11/03 04:40:55;;;;;;;5.88;1.13;;;12.70;99.90;;;;;;5090904;28;20521;-70
2022/11/03 04:43:28;;;;;;;9.10;1.45;;;12.70;99.90;;;;;;5089334;28;20490;-70
2022/11/03 04:45:55;;;;;;;5.07;1.33;;;12.70;99.90;;;;;;5090520;28;20135;-70
2022/11/03 04:48:22;;;;;;;7.03;1.48;;;12.70;99.90;;;;;;5090827;28;20503;-70
2022/11/03 04:50:53;;;;;;;8.40;1.38;;;12.70;99.90;;;;;;5073016;28;20080;-70
2022/11/03 04:53:20;;;;;;;10.23;2.08;;;12.70;99.90;;;;;;5089938;28;20332;-70
2022/11/03 04:55:48;;;;;;;9.80;1.08;;;12.70;99.90;;;;;;5089763;28;20134;-70
2022/11/03 04:58:31;;;;;;;5.07;1.20;;;12.70;99.90;;;;;;5091075;28;20138;-70
2022/11/03 05:00:59;;;;;;;9.75;1.23;;;12.70;99.90;;;;;;5088272;28;20048;-70
2022/11/03 05:03:29;;;;;;;4.90;1.38;;;12.70;99.90;;;;;;5090701;28;20131;-70
2022/11/03 05:05:56;;;;;;;4.88;1.48;;;12.70;99.90;;;;;;5089908;28;20040;-70
2022/11/03 05:08:22;;;;;;;4.97;1.25;;;12.70;99.90;;;;;;5090205;28;20062;-70
2022/11/03 05:10:49;;;;;;;11.25;1.13;;;12.80;99.90;;;;;;5089782;28;20417;-70
2022/11/03 05:13:23;;;;;;;7.40;0.90;;;12.70;99.90;;;;;;5091147;28;20055;-70
2022/11/03 05:15:51;;;;;;;6.60;1.23;;;12.80;99.90;;;;;;5089278;28;20146;-70
2022/11/03 05:18:30;;;;;;;6.07;1.40;;;12.80;99.90;;;;;;5090868;28;20135;-70
2022/11/03 05:20:57;;;;;;;9.65;1.40;;;12.80;99.90;;;;;;5089208;28;20048;-70
2022/11/03 05:23:24;;;;;;;7.72;1.80;;;12.80;99.90;;;;;;5089974;28;20534;-70
2022/11/03 05:25:52;;;;;;;4.53;1.27;;;12.80;99.90;;;;;;5089397;28;20055;-69
2022/11/03 05:28:25;;;;;;;8.68;2.13;;;12.80;99.90;;;;;;5094795;28;20136;-70
2022/11/03 05:30:52;;;;;;;5.57;1.25;;;12.80;99.90;;;;;;5077851;28;20056;-71
2022/11/03 05:33:28;;;;;;;3.33;1.20;;;12.80;99.90;;;;;;5096693;28;20139;-70
2022/11/03 05:35:58;;;;;;;5.30;1.08;;;12.80;99.90;;;;;;5096220;28;20055;-71
2022/11/03 05:38:26;;;;;;;7.07;1.50;;;12.80;99.90;;;;;;5056595;28;20440;-70
2022/11/03 05:40:53;;;;;;;8.75;1.92;;;12.80;99.90;;;;;;5072487;28;20053;-71
2022/11/03 05:43:20;;;;;;;9.07;1.60;;;12.80;99.90;;;;;;5088918;28;20044;-71
2022/11/03 05:45:49;;;;;;;6.43;1.48;;;12.80;99.90;;;;;;5088822;28;20167;-70
2022/11/03 05:48:34;;;;;;;9.45;1.40;;;12.90;99.90;;;;;;5088996;28;20070;-70
2022/11/03 05:51:09;;;;;;;15.48;2.08;;;12.90;99.90;;;;;;5073101;28;20419;-70
2022/11/03 05:53:42;;;;;;;10.48;3.80;;;12.90;99.90;;;;;;5089242;28;20048;-70
2022/11/03 05:56:16;;;;;;;18.40;1.67;;;12.90;99.90;;;;;;5089659;28;20048;-70
2022/11/03 05:58:43;;;;;;;10.40;1.90;;;12.90;99.90;;;;;;5088648;28;20770;-70
2022/11/03 06:01:17;;;;;;;15.23;2.65;;;12.90;99.90;;;;;;5072080;28;20154;-70
2022/11/03 06:03:44;;;;;;;14.40;2.38;;;13.00;99.90;;;;;;5088695;28;20351;-70
2022/11/03 06:06:21;;;;;;;17.95;2.15;;;13.00;99.90;;;;;;5088330;28;20516;-70
2022/11/03 06:08:48;;;;;;;14.88;2.25;;;13.00;99.90;;;;;;5088722;28;20040;-70
2022/11/03 06:11:31;;;;;;;18.55;1.98;;;13.00;99.90;;;;;;5055493;28;20058;-71
2022/11/03 06:13:58;;;;;;;12.82;2.80;;;13.10;99.90;;;;;;5079684;28;20487;-70
2022/11/03 06:16:40;;;;;;;22.23;3.78;;;13.00;99.90;;;;;;5089513;28;20692;-71
2022/11/03 06:19:27;;;;;;;14.07;2.47;;;13.10;99.90;;;;;;5080812;28;20071;-70
2022/11/03 06:21:58;;;;;;;16.52;2.90;;;13.10;99.90;;;;;;5088249;28;20083;-71
2022/11/03 06:24:28;;;;;;;16.20;2.47;;;13.00;99.90;;;;;;5055321;28;20044;-71
2022/11/03 06:26:56;;;;;;;12.75;2.05;;;13.00;99.90;;;;;;5089251;28;20074;-71
2022/11/03 06:29:22;;;;;;;9.95;1.42;;;12.90;99.90;;;;;;5088469;28;20138;-71
2022/11/03 06:31:50;;;;;;;3.70;0.98;;;12.80;99.90;;;;;;5089280;28;20044;-71
2022/11/03 06:34:38;;;;;;;3.40;0.90;;;12.70;99.90;;;;;;5088376;28;20036;-71
2022/11/03 06:37:20;;;;;;;2.88;0.85;;;12.40;99.90;;;;;;5055398;28;20509;-72
2022/11/03 06:39:47;;;;;;;1.85;0.70;;;12.30;99.90;;;;;;5063669;28;20414;-71
2022/11/03 06:42:14;;;;;;;4.00;0.60;;;12.20;99.90;;;;;;5088127;28;20234;-71
2022/11/03 06:44:43;;;;;;;2.00;0.60;;;12.20;99.90;;;;;;5071081;28;20517;-71
2022/11/03 06:47:21;;;;;;;5.72;0.82;;;12.00;99.90;;;;;;5071603;28;20502;-71
2022/11/03 06:49:55;;;;;;;10.80;0.98;;;11.90;99.90;;;;;;5070847;28;20586;-71
2022/11/03 06:52:22;;;;;;;;;;;11.70;99.90;;;;;;5072570;28;20047;-71
2022/11/03 06:54:58;;;;;;;8.95;3.22;;;11.60;99.90;;;;;;5085912;28;19924;-70
2022/11/03 06:57:25;;;;;;;3.78;1.02;;;11.50;99.90;;;;;;5084723;28;20098;-71
2022/11/03 06:59:52;;;;;;;8.70;1.23;;;11.30;99.90;;;;;;5085086;28;20050;-71
2022/11/03 07:02:54;;;;;;;9.48;1.63;;;11.20;99.90;;;;;;5071430;28;20250;-71
2022/11/03 07:05:29;;;;;;;12.68;1.90;;;11.20;99.90;;;;;;5087389;28;20128;-71
2022/11/03 07:08:10;;;;;;;6.38;1.65;;;11.10;99.90;;;;;;5092503;28;20123;-70
2022/11/03 07:10:36;;;;;;;9.35;2.05;;;11.10;99.90;;;;;;5076243;28;20050;-71
2022/11/03 07:13:13;;;;;;;6.63;1.30;;;11.20;99.90;;;;;;5091689;28;20155;-72
2022/11/03 07:15:40;;;;;;;8.60;2.05;;;11.20;99.90;;;;;;5075216;28;20052;-70
2022/11/03 07:18:19;;;;;;;5.78;1.30;;;11.20;99.90;;;;;;5092386;28;20054;-70
2022/11/03 07:20:46;;;;;;;13.18;3.40;;;11.20;99.90;;;;;;5057339;28;20102;-70
2022/11/03 07:23:17;;;;;;;9.40;1.77;;;11.20;99.90;;;;;;5090534;28;20044;-70
2022/11/03 07:25:46;;;;;;;7.32;1.55;;;11.20;99.90;;;;;;5074746;28;20050;-70
2022/11/03 07:28:12;;;;;;;8.18;2.65;;;11.10;99.90;;;;;;5074301;28;20135;-70
2022/11/03 07:30:39;;;;;;;9.55;1.85;;;11.10;99.90;;;;;;5090187;28;20069;-70
2022/11/03 07:33:21;;;;;;;9.55;2.47;;;11.10;99.90;;;;;;5073010;28;20052;-71
2022/11/03 07:35:48;;;;;;;12.50;3.05;;;11.10;99.90;;;;;;5091294;28;20056;-71
2022/11/03 07:38:35;;;;;;;13.43;2.05;;;11.10;99.90;;;;;;5070884;28;20044;-73
2022/11/03 07:41:02;;;;;;;7.32;1.85;;;11.20;99.90;;;;;;5071980;28;20082;-72
2022/11/03 07:43:33;;;;;;;11.15;2.03;;;11.10;99.90;;;;;;5090876;28;20093;-71
2022/11/03 07:46:03;;;;;;;6.28;1.80;;;11.00;99.90;;;;;;5092345;28;20510;-72
2022/11/03 07:48:37;;;;;;;12.13;2.50;;;11.00;99.90;;;;;;5081994;28;20128;-72
2022/11/03 07:51:21;;;;;;;6.32;1.38;;;11.00;99.90;;;;;;5087635;28;20054;-72
2022/11/03 07:54:00;;;;;;;8.85;1.88;;;11.00;99.90;;;;;;5072921;28;20527;-73
2022/11/03 07:56:31;;;;;;;7.03;1.45;;;11.00;99.90;;;;;;5074337;28;20494;-72
2022/11/03 07:59:08;;;;;;;3.63;1.50;;;11.10;99.90;;;;;;5090149;28;20517;-71
2022/11/03 08:01:36;;;;;;;9.25;1.65;;;11.10;99.90;;;;;;5091740;28;20048;-72
2022/11/03 08:04:04;;;;;;;9.55;1.75;;;11.10;99.90;;;;;;5089464;28;20135;-70
2022/11/03 08:06:31;;;;;;;4.78;1.48;;;11.10;99.90;;;;;;5088384;28;20048;-69
2022/11/03 08:08:58;;;;;;;6.35;1.45;;;11.10;99.90;;;;;;5091089;28;20066;-69
2022/11/03 08:11:25;;;;;;;6.65;1.63;;;11.10;99.90;;;;;;5072139;28;20052;-67
2022/11/03 08:13:55;;;;;;;7.88;1.30;;;11.20;99.90;;;;;;5090743;28;20135;-70
2022/11/03 08:16:22;;;;;;;8.27;1.38;;;11.20;99.90;;;;;;5091303;28;20108;-68
2022/11/03 08:18:48;;;;;;;8.55;1.27;;;11.20;99.90;;;;;;5092266;28;20036;-69
2022/11/03 08:21:16;;;;;;;6.10;1.55;;;11.20;99.90;;;;;;5094833;28;20050;-67
2022/11/03 08:23:43;;;;;;;4.32;1.23;;;11.20;99.90;;;;;;5095526;28;20066;-69
2022/11/03 08:26:13;;;;;;;2.40;1.15;;;11.20;99.90;;;;;;5092340;28;20414;-69
2022/11/03 08:28:40;;;;;;;6.43;1.70;;;11.30;99.90;;;;;;5070164;28;20115;-68
2022/11/03 08:31:07;;;;;;;4.05;1.20;;;11.30;99.90;;;;;;5079827;28;20032;-68
2022/11/03 08:33:38;;;;;;;6.63;1.40;;;11.20;99.90;;;;;;5102764;28;20067;-69
2022/11/03 08:36:06;;;;;;;9.15;1.55;;;11.20;99.90;;;;;;5099894;28;20107;-70
2022/11/03 08:38:33;;;;;;;5.18;0.90;;;11.20;99.90;;;;;;5105903;28;20112;-68
2022/11/03 08:41:00;;;;;;;7.03;1.70;;;11.20;99.90;;;;;;5100087;28;20047;-69
2022/11/03 08:43:27;;;;;;;8.25;1.42;;;11.10;99.90;;;;;;5102848;28;20040;-67
2022/11/03 08:45:55;;;;;;;7.03;1.25;;;11.10;99.90;;;;;;5094766;28;20441;-70
2022/11/03 08:48:28;;;;;;;5.72;2.05;;;11.00;99.90;;;;;;5104990;28;20044;-69
2022/11/03 08:50:55;;;;;;;6.68;1.92;;;11.00;99.90;;;;;;5106239;28;20571;-70
2022/11/03 08:53:23;;;;;;;5.68;1.27;;;11.10;99.90;;;;;;5092134;28;20407;-68
2022/11/03 08:55:53;;;;;;;6.97;1.98;;;11.00;99.90;;;;;;5071683;28;20139;-68
2022/11/03 08:58:21;;;;;;;4.90;1.50;;;11.00;99.90;;;;;;5089200;28;20087;-68
2022/11/03 09:00:48;;;;;;;8.15;2.03;;;11.10;99.90;;;;;;5072222;28;20074;-68
2022/11/03 09:03:15;;;;;;;4.35;0.98;;;11.20;99.90;;;;;;5089844;28;20055;-69
2022/11/03 09:05:42;;;;;;;7.00;2.50;;;11.20;99.90;;;;;;5088566;28;20271;-68
2022/11/03 09:08:09;;;;;;;3.08;1.13;;;11.20;99.90;;;;;;4739396;28;10000473;-69
2022/11/03 09:10:56;;;;;;;4.30;1.05;;;11.20;99.90;;;;;;5069794;28;20052;-68
2022/11/03 09:13:22;;;;;;;3.03;1.15;;;11.20;99.90;;;;;;5084530;28;20391;-69
2022/11/03 09:15:49;;;;;;;4.55;1.52;;;11.10;99.90;;;;;;5089546;28;20071;-69
2022/11/03 09:18:16;;;;;;;9.23;1.30;;;11.10;99.90;;;;;;5089467;28;20495;-69
2022/11/03 09:20:43;;;;;;;2.97;1.20;;;11.10;99.90;;;;;;5089691;28;20502;-68
2022/11/03 09:23:10;;;;;;;2.45;1.08;;;11.10;99.90;;;;;;5089652;28;20474;-69
2022/11/03 09:25:37;;;;;;;1.25;1.10;;;11.10;99.90;;;;;;5087808;28;20051;-68
2022/11/03 09:28:04;;;;;;;6.07;1.33;;;11.10;99.90;;;;;;5089124;28;20040;-69
2022/11/03 09:30:31;;;;;;;9.80;1.73;;;11.00;99.90;;;;;;5088692;28;20093;-70
2022/11/03 09:32:58;;;;;;;10.43;1.63;;;11.10;99.90;;;;;;5089257;28;20483;-69
2022/11/03 09:35:25;;;;;;;3.33;1.27;;;11.10;99.90;;;;;;5078401;28;20054;-68
2022/11/03 09:37:52;;;;;;;2.17;1.08;;;11.10;99.90;;;;;;5087925;28;20044;-68
2022/11/03 09:40:20;;;;;;;4.03;1.42;;;11.20;99.90;;;;;;5070976;28;20059;-69
2022/11/03 09:42:47;;;;;;;3.85;1.20;;;11.10;99.90;;;;;;5087796;28;20063;-70
2022/11/03 09:45:14;;;;;;;6.00;2.10;;;11.10;99.90;;;;;;5089287;28;20123;-70
2022/11/03 09:47:41;;;;;;;8.10;1.50;;;11.10;99.90;;;;;;5088294;28;20048;-69
2022/11/03 09:50:13;;;;;;;8.25;2.25;;;11.10;99.90;;;;;;5087924;28;20126;-69
2022/11/03 09:52:40;;;;;;;6.22;1.75;;;11.00;99.90;;;;;;5072030;28;20051;-68
2022/11/03 09:55:39;;;;;;;7.95;1.88;;;11.00;99.90;;;;;;5089458;28;20181;-69
2022/11/03 09:58:15;;;;;;;11.52;1.90;;;11.00;99.90;;;;;;5055807;28;20222;-69
2022/11/03 10:00:42;;;;;;;9.13;1.90;;;11.00;99.90;;;;;;5070728;28;20470;-69
2022/11/03 10:03:13;;;;;;;10.10;1.20;;;11.00;99.90;;;;;;5089468;28;20050;-69
2022/11/03 10:05:40;;;;;;;6.60;1.92;;;11.10;99.90;;;;;;5069830;28;20072;-69
2022/11/03 10:08:19;;;;;;;5.55;1.17;;;11.10;99.90;;;;;;5088557;28;20044;-69
2022/11/03 10:10:49;;;;;;;6.40;1.88;;;11.00;99.90;;;;;;5073360;28;20058;-69
2022/11/03 10:13:37;;;;;;;5.72;1.42;;;11.00;99.90;;;;;;5089774;28;20048;-69
2022/11/03 10:16:08;;;;;;;4.47;1.48;;;11.10;99.90;;;;;;5088412;28;20063;-69
2022/11/03 10:18:36;;;;;;;8.50;1.60;;;11.10;99.90;;;;;;5088726;28;20630;-69
2022/11/03 10:21:05;;;;;;;8.07;1.50;;;11.10;99.90;;;;;;5087687;28;20097;-68
2022/11/03 10:23:32;;;;;;;7.30;1.50;;;11.00;99.90;;;;;;5088406;28;20130;-70
2022/11/03 10:26:10;;;;;;;7.68;2.47;;;11.00;99.90;;;;;;5089220;28;20410;-68
2022/11/03 10:28:37;;;;;;;4.43;1.10;;;11.00;99.90;;;;;;5068981;28;20056;-69
2022/11/03 10:31:06;;;;;;;9.65;1.30;;;11.10;99.90;;;;;;5084746;28;20123;-69
2022/11/03 10:33:41;;;;;;;4.65;1.20;;;11.10;99.90;;;;;;5069306;28;20143;-69
2022/11/03 10:36:14;;;;;;;5.13;1.63;;;11.10;99.90;;;;;;5065748;28;20066;-68
2022/11/03 10:38:42;;;;;;;5.20;1.58;;;11.10;99.90;;;;;;5089420;28;20430;-68
2022/11/03 10:41:10;;;;;;;6.57;1.58;;;11.10;99.90;;;;;;5089697;28;20158;-69
2022/11/03 10:43:37;;;;;;;6.13;1.98;;;11.20;99.90;;;;;;5093444;28;20052;-69
2022/11/03 10:46:23;;;;;;;7.47;1.80;;;11.20;99.90;;;;;;5092159;28;20044;-69
2022/11/03 10:49:14;;;;;;;4.70;1.90;;;11.20;99.90;;;;;;5071376;28;20135;-68
2022/11/03 10:51:41;;;;;;;4.95;1.00;;;11.20;99.90;;;;;;5086160;28;20047;-69
2022/11/03 10:54:15;;;;;;;4.28;1.38;;;11.20;99.90;;;;;;5058874;28;20056;-67
2022/11/03 10:56:43;;;;;;;4.88;1.08;;;11.20;99.90;;;;;;5092983;28;20063;-68
2022/11/03 10:59:21;;;;;;;4.90;1.55;;;11.20;99.90;;;;;;5093154;28;20044;-68
2022/11/03 11:01:48;;;;;;;3.65;1.40;;;11.30;99.90;;;;;;5074971;28;20063;-68
2022/11/03 11:04:16;;;;;;;4.22;1.58;;;11.30;99.90;;;;;;5092691;28;20048;-69
2022/11/03 11:06:43;;;;;;;7.03;1.83;;;11.30;99.90;;;;;;5091882;28;20430;-68
2022/11/03 11:09:11;;;;;;;2.72;1.23;;;11.40;99.90;;;;;;5091670;28;20040;-68
2022/11/03 11:11:38;;;;;;;3.03;1.10;;;11.40;99.90;;;;;;5091765;28;20040;-68
2022/11/03 11:14:29;;;;;;;7.45;1.60;;;11.30;99.90;;;;;;5092884;28;20044;-69
2022/11/03 11:17:00;;;;;;;5.05;1.27;;;11.30;99.90;;;;;;5091475;28;20048;-69
2022/11/03 11:19:28;;;;;;;4.07;1.27;;;11.40;99.90;;;;;;5092565;28;20048;-68
2022/11/03 11:21:54;;;;;;;5.65;1.83;;;11.40;99.90;;;;;;5092614;28;20048;-69
2022/11/03 11:24:43;;;;;;;4.05;1.60;;;11.40;99.90;;;;;;5091266;28;20048;-69
2022/11/03 11:27:30;;;;;;;7.07;1.25;;;11.40;99.90;;;;;;5093144;28;20277;-68
2022/11/03 11:29:59;;;;;;;5.95;2.22;;;11.50;99.90;;;;;;5092952;28;20052;-69
2022/11/03 11:32:45;;;;;;;8.05;3.33;;;11.50;99.90;;;;;;5074556;28;20575;-69
2022/11/03 11:35:38;;;;;;;5.38;1.98;;;11.50;99.90;;;;;;5092150;28;20157;-69
2022/11/03 11:38:42;;;;;;;6.95;2.35;;;11.50;99.90;;;;;;5041604;28;20048;-70
2022/11/03 11:41:09;;;;;;;5.38;2.45;;;11.50;99.90;;;;;;5072496;28;20049;-69
2022/11/03 11:43:36;;;;;;;10.00;2.53;;;11.50;99.90;;;;;;5087875;28;20050;-69
2022/11/03 11:46:22;;;;;;;4.80;2.38;;;11.50;99.90;;;;;;5072963;28;20049;-69
2022/11/03 11:49:02;;;;;;;4.57;2.22;;;11.50;99.90;;;;;;5089931;28;20363;-69
2022/11/03 11:51:33;;;;;;;4.03;2.80;;;11.60;99.90;;;;;;5090971;28;20044;-69
2022/11/03 11:54:10;;;;;;;6.10;1.93;;;11.60;99.90;;;;;;5091473;28;20170;-69
2022/11/03 11:56:47;;;;;;;4.78;1.77;;;11.60;99.90;;;;;;5076219;28;20447;-69
2022/11/03 11:59:23;;;;;;;8.00;2.22;;;11.50;99.90;;;;;;5092462;28;20084;-70
2022/11/03 12:01:53;;;;;;;8.95;2.20;;;11.50;99.90;;;;;;5075337;28;20052;-70
2022/11/03 12:04:25;;;;;;;6.55;2.47;;;11.60;99.90;;;;;;5093195;28;20058;-70
2022/11/03 12:06:54;;;;;;;5.25;1.95;;;11.60;99.90;;;;;;5060160;28;20085;-69
2022/11/03 12:09:22;;;;;;;9.98;2.67;;;11.60;99.90;;;;;;5075765;28;20093;-69
2022/11/03 12:11:54;;;;;;;4.75;2.33;;;11.60;99.90;;;;;;5076998;28;20370;-68
2022/11/03 12:14:29;;;;;;;4.28;2.05;;;11.60;99.90;;;;;;5077430;28;20040;-68
2022/11/03 12:16:57;;;;;;;3.17;1.48;;;11.60;99.90;;;;;;5097777;28;20085;-68
2022/11/03 12:19:39;;;;;;;5.90;2.40;;;11.60;99.90;;;;;;5097748;28;20132;-68
2022/11/03 12:22:10;;;;;;;4.68;2.05;;;11.60;99.90;;;;;;5098190;28;20139;-69
2022/11/03 12:24:45;;;;;;;5.15;1.83;;;11.70;99.90;;;;;;5081130;28;20054;-69
2022/11/03 12:27:23;;;;;;;5.97;1.85;;;11.60;99.90;;;;;;5097323;28;20130;-68
2022/11/03 12:29:54;;;;;;;4.82;1.83;;;11.70;99.90;;;;;;5097523;28;20054;-68
2022/11/03 12:32:22;;;;;;;3.17;1.63;;;11.70;99.90;;;;;;5100080;28;20055;-68
2022/11/03 12:35:01;;;;;;;5.70;1.55;;;11.60;99.90;;;;;;5100561;28;20077;-68
2022/11/03 12:37:28;;;;;;;6.03;1.88;;;11.60;99.90;;;;;;5100081;28;20040;-68
2022/11/03 12:39:55;;;;;;;4.32;1.58;;;11.50;99.90;;;;;;5096887;28;20052;-68
2022/11/03 12:42:23;;;;;;;4.70;1.80;;;11.50;99.90;;;;;;5098979;28;20058;-68
2022/11/03 12:44:50;;;;;;;5.65;2.17;;;11.50;99.90;;;;;;5097794;28;20101;-69
2022/11/03 12:47:17;;;;;;;2.58;1.40;;;11.60;99.90;;;;;;5092756;28;20048;-68
2022/11/03 12:49:44;;;;;;;7.78;1.92;;;11.60;99.90;;;;;;5092814;28;20047;-70
2022/11/03 12:52:12;;;;;;;4.18;1.13;;;11.70;99.90;;;;;;5092706;28;20051;-68
2022/11/03 12:54:42;;;;;;;4.13;1.88;;;11.60;99.90;;;;;;5090819;28;20189;-67
2022/11/03 12:57:09;;;;;;;9.18;1.85;;;11.50;99.90;;;;;;5092839;28;20482;-68
2022/11/03 12:59:36;;;;;;;6.75;2.10;;;11.60;99.90;;;;;;5091545;28;20401;-68
2022/11/03 13:02:03;;;;;;;3.58;1.75;;;11.70;99.90;;;;;;5093675;28;20055;-68
2022/11/03 13:04:30;;;;;;;3.05;1.05;;;11.70;99.90;;;;;;5091781;28;20079;-68
2022/11/03 13:06:57;;;;;;;5.97;1.73;;;11.70;99.90;;;;;;5077082;28;20048;-68
2022/11/03 13:09:24;;;;;;;9.32;1.75;;;11.70;99.90;;;;;;5096202;28;20139;-68
2022/11/03 13:14:38;;;;;;;3.53;1.40;;;11.70;99.90;;;;;;5095692;28;20075;-68
2022/11/03 13:17:13;;;;;;;8.60;1.05;;;11.70;99.90;;;;;;5096429;28;20097;-69
2022/11/03 13:19:40;;;;;;;2.88;1.27;;;11.80;99.90;;;;;;5077916;28;20415;-68
2022/11/03 13:22:07;;;;;;;5.75;1.73;;;11.80;99.90;;;;;;5097224;28;20390;-69
2022/11/03 13:24:34;;;;;;;2.33;1.50;;;11.70;99.90;;;;;;5096991;28;20104;-69
2022/11/03 13:27:01;;;;;;;5.80;1.48;;;11.70;99.90;;;;;;5079060;28;20085;-68